LUK weather

Cincinnati Municipal Airport Lunken Field
Cincinnati, Ohio, United States

Public forecast

Using degrees Fahrenheit for public forecast. Weather courtesy of forecast.io.

METAR (pilot weather report)

Retrieved 2019/01/21 16:53 UTC (47 minutes ago):

KLUK 211653Z 36003KT 10SM CLR M11/M19 A3064 RMK AO2 SLP387 T11061189

TAF (pilot weather forecast)

Retrieved 2019/01/21 12:30 UTC (5 hours ago):

TAF KLUK 211128Z 2112/2212 01005KT P6SM SKC FM211800 09005KT P6SM SCT250 FM220300 10008KT P6SM BKN200